Terminal Aerodrome Forecast
Issued by NWS Charleston, WV

Home | Current Version | Previous Version | Text Only | Print | Product List | Glossary On
Versions: 1 2 3 4 5 6 7 8 9 10 11 12 13 14 15 16 17 18 19 20 21 22
000
FTUS41 KRLX 060900 AAA
TAFCRW
TAF AMD
KCRW 060905Z 0609/0706 00000KT P6SM FEW035
     FM061200 VRB03KT P6SM FEW025
     FM062300 00000KT P6SM SCT200=

USA.gov is the U.S. government's official web portal to all federal, state and local government web resources and services.